sensor_id;sensor_type;location;lat;lon;timestamp;P1;durP1;ratioP1;P2;durP2;ratioP2
37943;SDS011;23767;42.024;23.086;2023-01-28T00:01:09;6.37;;;3.50;;
37943;SDS011;23767;42.024;23.086;2023-01-28T00:03:35;6.20;;;3.10;;
37943;SDS011;23767;42.024;23.086;2023-01-28T00:06:03;5.97;;;2.70;;
37943;SDS011;23767;42.024;23.086;2023-01-28T00:08:29;5.60;;;3.10;;
37943;SDS011;23767;42.024;23.086;2023-01-28T00:10:57;6.27;;;3.07;;
37943;SDS011;23767;42.024;23.086;2023-01-28T00:13:24;6.10;;;3.27;;
37943;SDS011;23767;42.024;23.086;2023-01-28T00:15:54;5.27;;;3.00;;
37943;SDS011;23767;42.024;23.086;2023-01-28T00:18:20;6.13;;;3.13;;
37943;SDS011;23767;42.024;23.086;2023-01-28T00:20:54;4.87;;;2.87;;
37943;SDS011;23767;42.024;23.086;2023-01-28T00:23:20;5.07;;;2.87;;
37943;SDS011;23767;42.024;23.086;2023-01-28T00:25:46;5.03;;;2.87;;
37943;SDS011;23767;42.024;23.086;2023-01-28T00:28:13;6.47;;;3.23;;
37943;SDS011;23767;42.024;23.086;2023-01-28T00:30:39;5.87;;;2.80;;
37943;SDS011;23767;42.024;23.086;2023-01-28T00:33:05;6.17;;;3.30;;
37943;SDS011;23767;42.024;23.086;2023-01-28T00:35:31;6.20;;;3.00;;
37943;SDS011;23767;42.024;23.086;2023-01-28T00:37:57;5.50;;;3.10;;
37943;SDS011;23767;42.024;23.086;2023-01-28T00:40:24;5.20;;;3.30;;
37943;SDS011;23767;42.024;23.086;2023-01-28T00:42:50;5.47;;;3.00;;
37943;SDS011;23767;42.024;23.086;2023-01-28T00:45:16;5.40;;;3.10;;
37943;SDS011;23767;42.024;23.086;2023-01-28T00:47:42;6.53;;;2.97;;
37943;SDS011;23767;42.024;23.086;2023-01-28T00:50:09;7.53;;;4.20;;
37943;SDS011;23767;42.024;23.086;2023-01-28T00:52:35;4.03;;;2.53;;
37943;SDS011;23767;42.024;23.086;2023-01-28T00:55:01;7.60;;;4.17;;
37943;SDS011;23767;42.024;23.086;2023-01-28T00:57:27;10.97;;;6.33;;
37943;SDS011;23767;42.024;23.086;2023-01-28T00:59:53;5.67;;;3.50;;
37943;SDS011;23767;42.024;23.086;2023-01-28T01:02:19;4.90;;;2.93;;
37943;SDS011;23767;42.024;23.086;2023-01-28T01:04:45;5.20;;;3.00;;
37943;SDS011;23767;42.024;23.086;2023-01-28T01:07:22;4.80;;;3.00;;
37943;SDS011;23767;42.024;23.086;2023-01-28T01:09:56;5.23;;;2.90;;
37943;SDS011;23767;42.024;23.086;2023-01-28T01:12:22;5.20;;;2.90;;
37943;SDS011;23767;42.024;23.086;2023-01-28T01:14:48;6.13;;;3.10;;
37943;SDS011;23767;42.024;23.086;2023-01-28T01:17:14;4.17;;;2.60;;
37943;SDS011;23767;42.024;23.086;2023-01-28T01:19:41;5.23;;;3.17;;
37943;SDS011;23767;42.024;23.086;2023-01-28T01:22:06;4.67;;;2.77;;
37943;SDS011;23767;42.024;23.086;2023-01-28T01:24:33;5.23;;;2.93;;
37943;SDS011;23767;42.024;23.086;2023-01-28T01:26:59;5.60;;;3.30;;
37943;SDS011;23767;42.024;23.086;2023-01-28T01:29:25;4.53;;;2.73;;
37943;SDS011;23767;42.024;23.086;2023-01-28T01:31:51;6.90;;;3.70;;
37943;SDS011;23767;42.024;23.086;2023-01-28T01:34:17;5.40;;;3.20;;
37943;SDS011;23767;42.024;23.086;2023-01-28T01:36:43;6.37;;;3.13;;
37943;SDS011;23767;42.024;23.086;2023-01-28T01:39:12;5.17;;;3.07;;
37943;SDS011;23767;42.024;23.086;2023-01-28T01:41:38;5.30;;;3.17;;
37943;SDS011;23767;42.024;23.086;2023-01-28T01:44:05;5.00;;;2.67;;
37943;SDS011;23767;42.024;23.086;2023-01-28T01:46:48;5.40;;;3.27;;
37943;SDS011;23767;42.024;23.086;2023-01-28T01:49:19;5.83;;;3.17;;
37943;SDS011;23767;42.024;23.086;2023-01-28T01:51:46;4.93;;;2.63;;
37943;SDS011;23767;42.024;23.086;2023-01-28T01:54:14;5.37;;;3.03;;
37943;SDS011;23767;42.024;23.086;2023-01-28T01:56:42;4.90;;;2.80;;
37943;SDS011;23767;42.024;23.086;2023-01-28T01:59:10;5.30;;;2.57;;
37943;SDS011;23767;42.024;23.086;2023-01-28T02:01:37;5.00;;;2.67;;
37943;SDS011;23767;42.024;23.086;2023-01-28T02:04:06;4.90;;;2.60;;
37943;SDS011;23767;42.024;23.086;2023-01-28T02:06:33;5.10;;;2.83;;
37943;SDS011;23767;42.024;23.086;2023-01-28T02:09:00;5.27;;;2.80;;
37943;SDS011;23767;42.024;23.086;2023-01-28T02:11:28;4.93;;;2.67;;
37943;SDS011;23767;42.024;23.086;2023-01-28T02:13:55;5.30;;;3.17;;
37943;SDS011;23767;42.024;23.086;2023-01-28T02:16:22;4.93;;;3.00;;
37943;SDS011;23767;42.024;23.086;2023-01-28T02:18:49;5.23;;;3.00;;
37943;SDS011;23767;42.024;23.086;2023-01-28T02:28:54;4.63;;;2.87;;
37943;SDS011;23767;42.024;23.086;2023-01-28T02:36:41;6.80;;;3.30;;
37943;SDS011;23767;42.024;23.086;2023-01-28T02:39:12;5.27;;;2.83;;
37943;SDS011;23767;42.024;23.086;2023-01-28T02:41:43;4.87;;;2.73;;
37943;SDS011;23767;42.024;23.086;2023-01-28T02:46:37;5.23;;;2.60;;
37943;SDS011;23767;42.024;23.086;2023-01-28T02:59:41;4.63;;;2.60;;
37943;SDS011;23767;42.024;23.086;2023-01-28T03:04:43;5.47;;;2.93;;
37943;SDS011;23767;42.024;23.086;2023-01-28T03:07:12;6.07;;;3.30;;
37943;SDS011;23767;42.024;23.086;2023-01-28T03:09:39;4.57;;;2.83;;
37943;SDS011;23767;42.024;23.086;2023-01-28T03:12:18;5.13;;;2.93;;
37943;SDS011;23767;42.024;23.086;2023-01-28T03:15:05;4.57;;;2.50;;
37943;SDS011;23767;42.024;23.086;2023-01-28T03:20:45;4.90;;;2.73;;
37943;SDS011;23767;42.024;23.086;2023-01-28T03:23:31;6.47;;;2.87;;
37943;SDS011;23767;42.024;23.086;2023-01-28T03:26:20;6.20;;;2.83;;
37943;SDS011;23767;42.024;23.086;2023-01-28T03:29:07;4.37;;;2.67;;
37943;SDS011;23767;42.024;23.086;2023-01-28T03:31:54;5.60;;;2.77;;
37943;SDS011;23767;42.024;23.086;2023-01-28T03:34:39;7.10;;;2.87;;
37943;SDS011;23767;42.024;23.086;2023-01-28T03:37:24;6.30;;;3.20;;
37943;SDS011;23767;42.024;23.086;2023-01-28T03:39:52;5.80;;;3.00;;
37943;SDS011;23767;42.024;23.086;2023-01-28T03:42:22;4.70;;;2.87;;
37943;SDS011;23767;42.024;23.086;2023-01-28T03:44:48;5.00;;;2.70;;
37943;SDS011;23767;42.024;23.086;2023-01-28T03:47:23;6.83;;;2.70;;
37943;SDS011;23767;42.024;23.086;2023-01-28T03:49:50;5.20;;;3.10;;
37943;SDS011;23767;42.024;23.086;2023-01-28T03:52:18;5.47;;;3.13;;
37943;SDS011;23767;42.024;23.086;2023-01-28T03:54:45;5.60;;;2.80;;
37943;SDS011;23767;42.024;23.086;2023-01-28T03:57:13;4.80;;;3.10;;
37943;SDS011;23767;42.024;23.086;2023-01-28T03:59:39;5.17;;;3.10;;
37943;SDS011;23767;42.024;23.086;2023-01-28T04:02:05;5.57;;;3.20;;
37943;SDS011;23767;42.024;23.086;2023-01-28T04:04:32;5.73;;;2.90;;
37943;SDS011;23767;42.024;23.086;2023-01-28T04:06:58;5.87;;;3.57;;
37943;SDS011;23767;42.024;23.086;2023-01-28T04:09:24;5.37;;;2.80;;
37943;SDS011;23767;42.024;23.086;2023-01-28T04:11:50;5.20;;;3.00;;
37943;SDS011;23767;42.024;23.086;2023-01-28T04:14:17;4.90;;;2.87;;
37943;SDS011;23767;42.024;23.086;2023-01-28T04:16:43;4.83;;;2.90;;
37943;SDS011;23767;42.024;23.086;2023-01-28T04:19:10;5.37;;;3.10;;
37943;SDS011;23767;42.024;23.086;2023-01-28T04:21:37;5.43;;;3.70;;
37943;SDS011;23767;42.024;23.086;2023-01-28T04:24:03;4.70;;;3.00;;
37943;SDS011;23767;42.024;23.086;2023-01-28T04:26:30;6.57;;;3.00;;
37943;SDS011;23767;42.024;23.086;2023-01-28T04:28:56;6.37;;;3.27;;
37943;SDS011;23767;42.024;23.086;2023-01-28T04:31:22;4.60;;;2.80;;
37943;SDS011;23767;42.024;23.086;2023-01-28T04:33:48;5.43;;;2.60;;
37943;SDS011;23767;42.024;23.086;2023-01-28T04:36:14;4.97;;;3.10;;
37943;SDS011;23767;42.024;23.086;2023-01-28T04:38:41;6.43;;;2.87;;
37943;SDS011;23767;42.024;23.086;2023-01-28T04:41:07;5.03;;;2.83;;
37943;SDS011;23767;42.024;23.086;2023-01-28T04:43:33;5.33;;;3.27;;
37943;SDS011;23767;42.024;23.086;2023-01-28T04:45:59;4.87;;;2.60;;
37943;SDS011;23767;42.024;23.086;2023-01-28T04:48:25;5.93;;;3.33;;
37943;SDS011;23767;42.024;23.086;2023-01-28T04:50:51;5.33;;;3.20;;
37943;SDS011;23767;42.024;23.086;2023-01-28T04:53:17;4.87;;;3.00;;
37943;SDS011;23767;42.024;23.086;2023-01-28T04:55:43;4.77;;;2.87;;
37943;SDS011;23767;42.024;23.086;2023-01-28T04:58:10;4.80;;;3.13;;
37943;SDS011;23767;42.024;23.086;2023-01-28T05:03:18;4.38;;;2.72;;
37943;SDS011;23767;42.024;23.086;2023-01-28T05:05:44;6.73;;;3.10;;
37943;SDS011;23767;42.024;23.086;2023-01-28T05:08:10;5.83;;;3.07;;
37943;SDS011;23767;42.024;23.086;2023-01-28T05:10:36;6.17;;;3.30;;
37943;SDS011;23767;42.024;23.086;2023-01-28T05:13:04;6.07;;;3.63;;
37943;SDS011;23767;42.024;23.086;2023-01-28T05:15:30;6.77;;;3.70;;
37943;SDS011;23767;42.024;23.086;2023-01-28T05:17:56;6.00;;;3.63;;
37943;SDS011;23767;42.024;23.086;2023-01-28T05:20:24;10.43;;;3.97;;
37943;SDS011;23767;42.024;23.086;2023-01-28T05:22:50;6.63;;;3.60;;
37943;SDS011;23767;42.024;23.086;2023-01-28T05:25:16;6.73;;;3.50;;
37943;SDS011;23767;42.024;23.086;2023-01-28T05:27:42;7.03;;;4.07;;
37943;SDS011;23767;42.024;23.086;2023-01-28T05:30:08;8.13;;;3.80;;
37943;SDS011;23767;42.024;23.086;2023-01-28T05:32:34;5.97;;;3.33;;
37943;SDS011;23767;42.024;23.086;2023-01-28T05:35:00;6.83;;;4.00;;
37943;SDS011;23767;42.024;23.086;2023-01-28T05:37:26;5.80;;;3.70;;
37943;SDS011;23767;42.024;23.086;2023-01-28T05:39:53;5.73;;;3.60;;
37943;SDS011;23767;42.024;23.086;2023-01-28T05:42:19;5.97;;;3.90;;
37943;SDS011;23767;42.024;23.086;2023-01-28T05:44:46;6.87;;;4.07;;
37943;SDS011;23767;42.024;23.086;2023-01-28T05:47:12;7.70;;;4.37;;
37943;SDS011;23767;42.024;23.086;2023-01-28T05:49:38;6.33;;;4.17;;
37943;SDS011;23767;42.024;23.086;2023-01-28T05:52:04;6.13;;;4.03;;
37943;SDS011;23767;42.024;23.086;2023-01-28T05:54:30;6.63;;;3.70;;
37943;SDS011;23767;42.024;23.086;2023-01-28T05:56:56;5.83;;;3.87;;
37943;SDS011;23767;42.024;23.086;2023-01-28T05:59:22;6.87;;;3.90;;
37943;SDS011;23767;42.024;23.086;2023-01-28T06:01:48;5.60;;;3.43;;
37943;SDS011;23767;42.024;23.086;2023-01-28T06:04:15;6.03;;;3.63;;
37943;SDS011;23767;42.024;23.086;2023-01-28T06:06:43;6.30;;;4.00;;
37943;SDS011;23767;42.024;23.086;2023-01-28T06:09:09;6.50;;;4.70;;
37943;SDS011;23767;42.024;23.086;2023-01-28T06:11:35;6.03;;;3.87;;
37943;SDS011;23767;42.024;23.086;2023-01-28T06:14:01;6.67;;;3.70;;
37943;SDS011;23767;42.024;23.086;2023-01-28T06:16:27;6.67;;;4.37;;
37943;SDS011;23767;42.024;23.086;2023-01-28T06:18:53;10.17;;;6.57;;
37943;SDS011;23767;42.024;23.086;2023-01-28T06:21:19;7.30;;;4.27;;
37943;SDS011;23767;42.024;23.086;2023-01-28T06:23:45;9.37;;;5.30;;
37943;SDS011;23767;42.024;23.086;2023-01-28T06:26:11;12.90;;;9.20;;
37943;SDS011;23767;42.024;23.086;2023-01-28T06:28:37;7.13;;;5.03;;
37943;SDS011;23767;42.024;23.086;2023-01-28T06:31:03;9.93;;;5.57;;
37943;SDS011;23767;42.024;23.086;2023-01-28T06:33:30;7.70;;;4.97;;
37943;SDS011;23767;42.024;23.086;2023-01-28T06:35:56;9.27;;;4.90;;
37943;SDS011;23767;42.024;23.086;2023-01-28T06:38:22;8.80;;;5.23;;
37943;SDS011;23767;42.024;23.086;2023-01-28T06:40:52;10.53;;;4.87;;
37943;SDS011;23767;42.024;23.086;2023-01-28T06:43:20;10.00;;;5.70;;
37943;SDS011;23767;42.024;23.086;2023-01-28T06:45:51;10.82;;;5.47;;
37943;SDS011;23767;42.024;23.086;2023-01-28T06:48:18;13.43;;;5.13;;
37943;SDS011;23767;42.024;23.086;2023-01-28T06:50:45;9.90;;;5.60;;
37943;SDS011;23767;42.024;23.086;2023-01-28T06:53:12;10.00;;;5.17;;
37943;SDS011;23767;42.024;23.086;2023-01-28T06:55:38;8.23;;;4.97;;
37943;SDS011;23767;42.024;23.086;2023-01-28T06:58:04;10.00;;;4.67;;
37943;SDS011;23767;42.024;23.086;2023-01-28T07:00:30;15.73;;;9.77;;
37943;SDS011;23767;42.024;23.086;2023-01-28T07:02:56;9.10;;;5.30;;
37943;SDS011;23767;42.024;23.086;2023-01-28T07:05:23;9.90;;;5.47;;
37943;SDS011;23767;42.024;23.086;2023-01-28T07:07:49;7.90;;;5.20;;
37943;SDS011;23767;42.024;23.086;2023-01-28T07:10:15;8.77;;;4.93;;
37943;SDS011;23767;42.024;23.086;2023-01-28T07:12:41;7.27;;;4.67;;
37943;SDS011;23767;42.024;23.086;2023-01-28T07:15:07;7.57;;;4.60;;
37943;SDS011;23767;42.024;23.086;2023-01-28T07:17:35;12.23;;;4.83;;
37943;SDS011;23767;42.024;23.086;2023-01-28T07:20:01;7.67;;;4.50;;
37943;SDS011;23767;42.024;23.086;2023-01-28T07:22:27;10.73;;;5.13;;
37943;SDS011;23767;42.024;23.086;2023-01-28T07:24:53;8.80;;;5.37;;
37943;SDS011;23767;42.024;23.086;2023-01-28T07:27:19;11.53;;;7.07;;
37943;SDS011;23767;42.024;23.086;2023-01-28T07:29:45;11.70;;;7.27;;
37943;SDS011;23767;42.024;23.086;2023-01-28T07:32:11;12.27;;;8.20;;
37943;SDS011;23767;42.024;23.086;2023-01-28T07:34:37;11.63;;;8.20;;
37943;SDS011;23767;42.024;23.086;2023-01-28T07:37:05;11.03;;;7.13;;
37943;SDS011;23767;42.024;23.086;2023-01-28T07:39:32;9.50;;;5.00;;
37943;SDS011;23767;42.024;23.086;2023-01-28T07:41:58;10.57;;;6.47;;
37943;SDS011;23767;42.024;23.086;2023-01-28T07:44:24;9.20;;;5.77;;
37943;SDS011;23767;42.024;23.086;2023-01-28T07:46:51;9.47;;;5.57;;
37943;SDS011;23767;42.024;23.086;2023-01-28T07:49:17;8.83;;;4.60;;
37943;SDS011;23767;42.024;23.086;2023-01-28T07:51:43;7.17;;;4.87;;
37943;SDS011;23767;42.024;23.086;2023-01-28T07:54:11;15.27;;;10.27;;
37943;SDS011;23767;42.024;23.086;2023-01-28T07:56:37;11.17;;;5.93;;
37943;SDS011;23767;42.024;23.086;2023-01-28T07:59:03;12.00;;;4.70;;
37943;SDS011;23767;42.024;23.086;2023-01-28T08:01:29;26.53;;;18.70;;
37943;SDS011;23767;42.024;23.086;2023-01-28T08:03:55;22.53;;;13.70;;
37943;SDS011;23767;42.024;23.086;2023-01-28T08:06:21;19.97;;;7.77;;
37943;SDS011;23767;42.024;23.086;2023-01-28T08:08:47;10.57;;;6.40;;
37943;SDS011;23767;42.024;23.086;2023-01-28T08:11:13;20.33;;;8.90;;
37943;SDS011;23767;42.024;23.086;2023-01-28T08:13:39;14.33;;;5.93;;
37943;SDS011;23767;42.024;23.086;2023-01-28T08:16:05;22.13;;;5.53;;
37943;SDS011;23767;42.024;23.086;2023-01-28T08:18:31;16.00;;;5.93;;
37943;SDS011;23767;42.024;23.086;2023-01-28T08:20:58;13.50;;;5.77;;
37943;SDS011;23767;42.024;23.086;2023-01-28T08:23:24;10.83;;;5.00;;
37943;SDS011;23767;42.024;23.086;2023-01-28T08:25:51;13.13;;;5.87;;
37943;SDS011;23767;42.024;23.086;2023-01-28T08:28:18;17.93;;;5.23;;
37943;SDS011;23767;42.024;23.086;2023-01-28T08:30:45;17.53;;;5.50;;
37943;SDS011;23767;42.024;23.086;2023-01-28T08:33:11;16.10;;;5.87;;
37943;SDS011;23767;42.024;23.086;2023-01-28T08:35:38;12.40;;;5.30;;
37943;SDS011;23767;42.024;23.086;2023-01-28T08:38:04;12.70;;;4.73;;
37943;SDS011;23767;42.024;23.086;2023-01-28T08:40:31;10.23;;;4.80;;
37943;SDS011;23767;42.024;23.086;2023-01-28T08:42:57;11.33;;;4.87;;
37943;SDS011;23767;42.024;23.086;2023-01-28T08:45:24;11.43;;;5.03;;
37943;SDS011;23767;42.024;23.086;2023-01-28T08:47:54;11.07;;;4.60;;
37943;SDS011;23767;42.024;23.086;2023-01-28T08:50:21;9.77;;;4.80;;
37943;SDS011;23767;42.024;23.086;2023-01-28T08:52:47;10.23;;;5.30;;
37943;SDS011;23767;42.024;23.086;2023-01-28T08:55:14;11.30;;;5.87;;
37943;SDS011;23767;42.024;23.086;2023-01-28T08:57:40;13.13;;;5.30;;
37943;SDS011;23767;42.024;23.086;2023-01-28T09:00:07;15.47;;;8.40;;
37943;SDS011;23767;42.024;23.086;2023-01-28T09:02:35;13.53;;;5.60;;
37943;SDS011;23767;42.024;23.086;2023-01-28T09:05:01;14.67;;;5.93;;
37943;SDS011;23767;42.024;23.086;2023-01-28T09:07:27;9.50;;;4.73;;
37943;SDS011;23767;42.024;23.086;2023-01-28T09:09:53;11.27;;;4.73;;
37943;SDS011;23767;42.024;23.086;2023-01-28T09:12:19;12.67;;;5.63;;
37943;SDS011;23767;42.024;23.086;2023-01-28T09:14:45;11.80;;;5.20;;
37943;SDS011;23767;42.024;23.086;2023-01-28T09:17:11;7.03;;;4.53;;
37943;SDS011;23767;42.024;23.086;2023-01-28T09:19:37;12.23;;;5.00;;
37943;SDS011;23767;42.024;23.086;2023-01-28T09:22:03;11.43;;;4.80;;
37943;SDS011;23767;42.024;23.086;2023-01-28T09:24:30;8.93;;;4.93;;
37943;SDS011;23767;42.024;23.086;2023-01-28T09:26:56;11.27;;;5.27;;
37943;SDS011;23767;42.024;23.086;2023-01-28T09:29:22;10.30;;;5.00;;
37943;SDS011;23767;42.024;23.086;2023-01-28T09:31:48;9.73;;;4.80;;
37943;SDS011;23767;42.024;23.086;2023-01-28T09:34:14;9.20;;;5.23;;
37943;SDS011;23767;42.024;23.086;2023-01-28T09:36:40;13.87;;;5.33;;
37943;SDS011;23767;42.024;23.086;2023-01-28T09:39:06;12.83;;;6.13;;
37943;SDS011;23767;42.024;23.086;2023-01-28T09:46:59;10.03;;;5.73;;
37943;SDS011;23767;42.024;23.086;2023-01-28T09:49:47;10.70;;;5.50;;
37943;SDS011;23767;42.024;23.086;2023-01-28T09:52:13;12.50;;;5.97;;
37943;SDS011;23767;42.024;23.086;2023-01-28T09:54:42;9.50;;;5.93;;
37943;SDS011;23767;42.024;23.086;2023-01-28T09:57:11;15.67;;;5.93;;
37943;SDS011;23767;42.024;23.086;2023-01-28T09:59:38;8.53;;;5.40;;
37943;SDS011;23767;42.024;23.086;2023-01-28T10:10:08;15.43;;;7.30;;
37943;SDS011;23767;42.024;23.086;2023-01-28T10:17:53;33.43;;;19.57;;
37943;SDS011;23767;42.024;23.086;2023-01-28T10:22:55;11.10;;;6.40;;
37943;SDS011;23767;42.024;23.086;2023-01-28T10:25:24;11.27;;;6.60;;
37943;SDS011;23767;42.024;23.086;2023-01-28T10:27:50;8.73;;;5.60;;
37943;SDS011;23767;42.024;23.086;2023-01-28T10:30:21;14.00;;;6.13;;
37943;SDS011;23767;42.024;23.086;2023-01-28T10:35:34;10.43;;;6.40;;
37943;SDS011;23767;42.024;23.086;2023-01-28T10:38:01;10.88;;;5.75;;
37943;SDS011;23767;42.024;23.086;2023-01-28T10:40:31;14.63;;;9.57;;
37943;SDS011;23767;42.024;23.086;2023-01-28T10:42:57;12.60;;;7.03;;
37943;SDS011;23767;42.024;23.086;2023-01-28T10:45:25;10.55;;;6.85;;
37943;SDS011;23767;42.024;23.086;2023-01-28T10:47:53;10.93;;;5.82;;
37943;SDS011;23767;42.024;23.086;2023-01-28T10:50:22;11.95;;;6.35;;
37943;SDS011;23767;42.024;23.086;2023-01-28T10:52:55;9.27;;;5.05;;
37943;SDS011;23767;42.024;23.086;2023-01-28T10:55:22;8.43;;;5.70;;
37943;SDS011;23767;42.024;23.086;2023-01-28T10:57:49;11.30;;;5.67;;
37943;SDS011;23767;42.024;23.086;2023-01-28T11:00:25;8.23;;;4.93;;
37943;SDS011;23767;42.024;23.086;2023-01-28T11:02:54;10.57;;;6.00;;
37943;SDS011;23767;42.024;23.086;2023-01-28T11:07:47;10.82;;;5.70;;
37943;SDS011;23767;42.024;23.086;2023-01-28T11:10:47;11.00;;;5.97;;
37943;SDS011;23767;42.024;23.086;2023-01-28T11:13:13;9.43;;;5.40;;
37943;SDS011;23767;42.024;23.086;2023-01-28T11:15:45;12.50;;;5.80;;
37943;SDS011;23767;42.024;23.086;2023-01-28T11:18:25;9.75;;;5.22;;
37943;SDS011;23767;42.024;23.086;2023-01-28T11:21:05;10.05;;;5.25;;
37943;SDS011;23767;42.024;23.086;2023-01-28T11:23:40;9.30;;;5.90;;
37943;SDS011;23767;42.024;23.086;2023-01-28T11:26:17;11.68;;;6.47;;
37943;SDS011;23767;42.024;23.086;2023-01-28T11:28:44;13.53;;;9.50;;
37943;SDS011;23767;42.024;23.086;2023-01-28T11:31:12;14.65;;;9.70;;
37943;SDS011;23767;42.024;23.086;2023-01-28T11:33:43;8.53;;;5.23;;
37943;SDS011;23767;42.024;23.086;2023-01-28T11:36:19;12.83;;;6.50;;
37943;SDS011;23767;42.024;23.086;2023-01-28T11:38:50;11.27;;;6.10;;
37943;SDS011;23767;42.024;23.086;2023-01-28T11:41:16;10.52;;;5.60;;
37943;SDS011;23767;42.024;23.086;2023-01-28T11:43:43;16.77;;;6.47;;
37943;SDS011;23767;42.024;23.086;2023-01-28T11:53:43;18.13;;;8.95;;
37943;SDS011;23767;42.024;23.086;2023-01-28T11:56:16;13.35;;;7.63;;
37943;SDS011;23767;42.024;23.086;2023-01-28T12:01:22;13.18;;;7.13;;
37943;SDS011;23767;42.024;23.086;2023-01-28T12:06:40;9.32;;;5.97;;
37943;SDS011;23767;42.024;23.086;2023-01-28T12:09:24;11.52;;;6.47;;
37943;SDS011;23767;42.024;23.086;2023-01-28T12:22:29;15.43;;;6.55;;
37943;SDS011;23767;42.024;23.086;2023-01-28T12:25:04;14.60;;;7.05;;
37943;SDS011;23767;42.024;23.086;2023-01-28T12:27:35;8.30;;;4.90;;
37943;SDS011;23767;42.024;23.086;2023-01-28T12:45:54;10.63;;;5.05;;
37943;SDS011;23767;42.024;23.086;2023-01-28T12:48:25;9.85;;;5.50;;
37943;SDS011;23767;42.024;23.086;2023-01-28T12:51:02;10.37;;;5.73;;
37943;SDS011;23767;42.024;23.086;2023-01-28T12:56:08;16.52;;;7.43;;
37943;SDS011;23767;42.024;23.086;2023-01-28T13:01:08;13.33;;;5.83;;
37943;SDS011;23767;42.024;23.086;2023-01-28T13:06:04;18.70;;;8.77;;
37943;SDS011;23767;42.024;23.086;2023-01-28T13:08:31;8.48;;;6.00;;
37943;SDS011;23767;42.024;23.086;2023-01-28T13:10:58;9.93;;;5.45;;
37943;SDS011;23767;42.024;23.086;2023-01-28T13:13:35;7.70;;;4.97;;
37943;SDS011;23767;42.024;23.086;2023-01-28T13:16:01;8.05;;;4.70;;
37943;SDS011;23767;42.024;23.086;2023-01-28T13:21:01;9.10;;;5.18;;
37943;SDS011;23767;42.024;23.086;2023-01-28T13:25:57;16.05;;;5.10;;
37943;SDS011;23767;42.024;23.086;2023-01-28T13:28:33;12.82;;;5.95;;
37943;SDS011;23767;42.024;23.086;2023-01-28T13:33:30;13.43;;;5.93;;
37943;SDS011;23767;42.024;23.086;2023-01-28T13:35:56;15.07;;;6.93;;
37943;SDS011;23767;42.024;23.086;2023-01-28T13:38:23;19.40;;;8.37;;
37943;SDS011;23767;42.024;23.086;2023-01-28T13:40:53;24.35;;;13.57;;
37943;SDS011;23767;42.024;23.086;2023-01-28T13:45:59;23.33;;;11.98;;
37943;SDS011;23767;42.024;23.086;2023-01-28T13:48:30;30.48;;;14.07;;
37943;SDS011;23767;42.024;23.086;2023-01-28T13:50:57;18.30;;;10.15;;
37943;SDS011;23767;42.024;23.086;2023-01-28T13:53:28;56.30;;;22.07;;
37943;SDS011;23767;42.024;23.086;2023-01-28T13:55:59;35.53;;;17.10;;
37943;SDS011;23767;42.024;23.086;2023-01-28T14:09:09;11.10;;;6.95;;
37943;SDS011;23767;42.024;23.086;2023-01-28T14:15:03;15.88;;;7.72;;
37943;SDS011;23767;42.024;23.086;2023-01-28T14:17:26;9.50;;;5.07;;
37943;SDS011;23767;42.024;23.086;2023-01-28T14:19:57;11.82;;;5.00;;
37943;SDS011;23767;42.024;23.086;2023-01-28T14:22:25;12.40;;;7.13;;
37943;SDS011;23767;42.024;23.086;2023-01-28T14:24:51;10.75;;;4.88;;
37943;SDS011;23767;42.024;23.086;2023-01-28T14:30:06;13.75;;;5.15;;
37943;SDS011;23767;42.024;23.086;2023-01-28T14:32:35;14.18;;;6.18;;
37943;SDS011;23767;42.024;23.086;2023-01-28T14:35:06;12.55;;;7.38;;
37943;SDS011;23767;42.024;23.086;2023-01-28T14:37:33;10.85;;;6.22;;
37943;SDS011;23767;42.024;23.086;2023-01-28T14:42:26;10.77;;;6.15;;
37943;SDS011;23767;42.024;23.086;2023-01-28T14:44:59;11.75;;;6.95;;
37943;SDS011;23767;42.024;23.086;2023-01-28T14:57:31;11.30;;;6.30;;
37943;SDS011;23767;42.024;23.086;2023-01-28T15:00:00;10.20;;;6.47;;
37943;SDS011;23767;42.024;23.086;2023-01-28T15:02:27;12.73;;;6.23;;
37943;SDS011;23767;42.024;23.086;2023-01-28T15:04:54;15.27;;;6.70;;
37943;SDS011;23767;42.024;23.086;2023-01-28T15:07:24;11.97;;;6.93;;
37943;SDS011;23767;42.024;23.086;2023-01-28T15:12:31;10.83;;;6.70;;
37943;SDS011;23767;42.024;23.086;2023-01-28T15:15:06;11.68;;;6.45;;
37943;SDS011;23767;42.024;23.086;2023-01-28T15:17:32;12.48;;;8.57;;
37943;SDS011;23767;42.024;23.086;2023-01-28T15:19:58;11.48;;;6.53;;
37943;SDS011;23767;42.024;23.086;2023-01-28T15:22:25;11.60;;;7.47;;
37943;SDS011;23767;42.024;23.086;2023-01-28T15:24:52;14.85;;;9.60;;
37943;SDS011;23767;42.024;23.086;2023-01-28T15:27:20;13.90;;;8.20;;
37943;SDS011;23767;42.024;23.086;2023-01-28T15:29:50;12.57;;;8.48;;
37943;SDS011;23767;42.024;23.086;2023-01-28T15:32:19;11.77;;;7.60;;
37943;SDS011;23767;42.024;23.086;2023-01-28T15:34:47;13.27;;;9.48;;
37943;SDS011;23767;42.024;23.086;2023-01-28T15:37:13;12.52;;;8.75;;
37943;SDS011;23767;42.024;23.086;2023-01-28T15:39:39;9.30;;;7.03;;
37943;SDS011;23767;42.024;23.086;2023-01-28T15:42:05;11.82;;;7.32;;
37943;SDS011;23767;42.024;23.086;2023-01-28T15:44:41;13.73;;;8.73;;
37943;SDS011;23767;42.024;23.086;2023-01-28T15:49:41;10.25;;;7.60;;
37943;SDS011;23767;42.024;23.086;2023-01-28T15:52:08;10.60;;;7.68;;
37943;SDS011;23767;42.024;23.086;2023-01-28T15:54:41;10.75;;;8.00;;
37943;SDS011;23767;42.024;23.086;2023-01-28T15:57:09;11.27;;;8.15;;
37943;SDS011;23767;42.024;23.086;2023-01-28T15:59:35;12.50;;;9.50;;
37943;SDS011;23767;42.024;23.086;2023-01-28T16:02:20;13.20;;;8.90;;
37943;SDS011;23767;42.024;23.086;2023-01-28T16:07:26;11.00;;;7.40;;
37943;SDS011;23767;42.024;23.086;2023-01-28T16:09:53;11.53;;;8.80;;
37943;SDS011;23767;42.024;23.086;2023-01-28T16:12:20;11.95;;;8.77;;
37943;SDS011;23767;42.024;23.086;2023-01-28T16:14:50;15.60;;;10.70;;
37943;SDS011;23767;42.024;23.086;2023-01-28T16:17:21;12.47;;;8.13;;
37943;SDS011;23767;42.024;23.086;2023-01-28T16:19:55;12.07;;;9.17;;
37943;SDS011;23767;42.024;23.086;2023-01-28T16:22:37;12.30;;;8.90;;
37943;SDS011;23767;42.024;23.086;2023-01-28T16:27:48;10.37;;;7.70;;
37943;SDS011;23767;42.024;23.086;2023-01-28T16:30:15;9.30;;;7.33;;
37943;SDS011;23767;42.024;23.086;2023-01-28T16:32:41;8.83;;;6.57;;
37943;SDS011;23767;42.024;23.086;2023-01-28T16:35:11;9.93;;;7.27;;
37943;SDS011;23767;42.024;23.086;2023-01-28T16:37:38;10.27;;;7.30;;
37943;SDS011;23767;42.024;23.086;2023-01-28T16:40:04;11.77;;;7.17;;
37943;SDS011;23767;42.024;23.086;2023-01-28T16:42:31;10.40;;;7.70;;
37943;SDS011;23767;42.024;23.086;2023-01-28T16:44:57;12.63;;;8.53;;
37943;SDS011;23767;42.024;23.086;2023-01-28T16:47:23;13.33;;;9.43;;
37943;SDS011;23767;42.024;23.086;2023-01-28T16:49:49;13.70;;;8.37;;
37943;SDS011;23767;42.024;23.086;2023-01-28T16:52:15;11.93;;;9.07;;
37943;SDS011;23767;42.024;23.086;2023-01-28T16:54:42;12.73;;;8.50;;
37943;SDS011;23767;42.024;23.086;2023-01-28T16:57:18;10.93;;;8.50;;
37943;SDS011;23767;42.024;23.086;2023-01-28T16:59:45;11.17;;;8.30;;
37943;SDS011;23767;42.024;23.086;2023-01-28T17:02:11;10.57;;;7.63;;
37943;SDS011;23767;42.024;23.086;2023-01-28T17:04:37;11.33;;;8.70;;
37943;SDS011;23767;42.024;23.086;2023-01-28T17:07:03;12.13;;;8.57;;
37943;SDS011;23767;42.024;23.086;2023-01-28T17:09:30;11.50;;;8.53;;
37943;SDS011;23767;42.024;23.086;2023-01-28T17:11:56;12.07;;;8.00;;